createdAt,value
2022-09-26T00:01:43.812Z,10.80
2022-09-26T00:04:23.260Z,10.55
2022-09-26T00:06:53.257Z,10.55
2022-09-26T00:09:21.861Z,11.25
2022-09-26T00:11:52.682Z,11.10
2022-09-26T00:14:28.153Z,11.30
2022-09-26T00:16:56.823Z,10.77
2022-09-26T00:19:24.619Z,11.63
2022-09-26T00:21:51.675Z,11.55
2022-09-26T00:24:22.093Z,11.38
2022-09-26T00:26:49.110Z,11.77
2022-09-26T00:29:16.833Z,11.25
2022-09-26T00:31:46.352Z,11.18
2022-09-26T00:34:18.989Z,11.27
2022-09-26T00:36:48.258Z,12.23
2022-09-26T00:39:17.966Z,11.25
2022-09-26T00:41:51.401Z,11.85
2022-09-26T00:44:54.644Z,12.43
2022-09-26T00:47:41.466Z,12.88
2022-09-26T00:50:18.288Z,12.80
2022-09-26T00:52:56.194Z,12.45
2022-09-26T00:55:30.199Z,12.65
2022-09-26T00:58:04.534Z,13.45
2022-09-26T01:00:31.875Z,12.95
2022-09-26T01:02:59.007Z,12.38
2022-09-26T01:05:26.458Z,12.32
2022-09-26T01:07:58.152Z,12.93
2022-09-26T01:10:28.789Z,13.38
2022-09-26T01:12:59.477Z,13.95
2022-09-26T01:15:27.141Z,13.68
2022-09-26T01:18:34.332Z,13.18
2022-09-26T01:21:35.899Z,13.90
2022-09-26T01:24:51.437Z,13.30
2022-09-26T01:28:02.282Z,14.68
2022-09-26T01:30:47.951Z,13.45
2022-09-26T01:33:52.866Z,14.32
2022-09-26T01:36:46.790Z,14.43
2022-09-26T01:39:34.994Z,14.98
2022-09-26T01:42:37.410Z,13.98
2022-09-26T01:50:08.081Z,12.20
2022-09-26T01:52:37.054Z,11.43
2022-09-26T01:55:20.332Z,11.43
2022-09-26T01:58:14.889Z,10.23
2022-09-26T02:00:46.856Z,9.95
2022-09-26T02:03:21.107Z,9.57
2022-09-26T02:06:20.288Z,9.32
2022-09-26T02:10:37.060Z,9.43
2022-09-26T02:12:54.934Z,8.60
2022-09-26T02:15:26.812Z,9.00
2022-09-26T02:18:21.175Z,8.38
2022-09-26T02:21:00.493Z,8.73
2022-09-26T02:23:27.601Z,7.13
2022-09-26T02:25:54.911Z,7.10
2022-09-26T02:28:22.010Z,5.75
2022-09-26T02:30:52.566Z,6.22
2022-09-26T02:33:19.860Z,6.07
2022-09-26T02:35:54.225Z,6.90
2022-09-26T02:38:37.192Z,6.60
2022-09-26T02:44:29.055Z,6.47
2022-09-26T02:47:26.358Z,7.22
2022-09-26T02:50:33.329Z,6.57
2022-09-26T02:53:38.376Z,4.55
2022-09-26T02:56:30.065Z,4.85
2022-09-26T02:59:13.686Z,5.47
2022-09-26T03:02:04.488Z,5.85
2022-09-26T03:05:20.415Z,5.90
2022-09-26T03:08:11.684Z,7.30
2022-09-26T03:10:42.005Z,6.75
2022-09-26T03:13:14.589Z,8.25
2022-09-26T03:15:56.955Z,7.38
2022-09-26T03:18:35.563Z,8.00
2022-09-26T03:21:03.095Z,7.93
2022-09-26T03:23:30.631Z,7.65
2022-09-26T03:26:10.193Z,7.75
2022-09-26T03:28:42.969Z,5.82
2022-09-26T03:31:11.419Z,4.90
2022-09-26T03:33:58.755Z,5.53
2022-09-26T03:36:26.456Z,4.22
2022-09-26T03:38:53.457Z,5.07
2022-09-26T03:41:39.166Z,5.38
2022-09-26T03:44:12.858Z,5.13
2022-09-26T03:47:12.720Z,5.50
2022-09-26T03:49:43.020Z,5.20
2022-09-26T03:52:13.412Z,5.75
2022-09-26T03:54:42.449Z,5.88
2022-09-26T03:57:13.173Z,7.05
2022-09-26T03:59:50.170Z,6.55
2022-09-26T04:02:19.964Z,6.65
2022-09-26T04:04:51.811Z,6.10
2022-09-26T04:07:18.822Z,7.03
2022-09-26T04:09:46.685Z,7.45
2022-09-26T04:12:13.735Z,7.57
2022-09-26T04:14:44.257Z,7.22
2022-09-26T04:17:12.046Z,8.07
2022-09-26T04:19:42.966Z,10.17
2022-09-26T04:22:10.213Z,9.77
2022-09-26T04:24:47.689Z,9.20
2022-09-26T04:30:16.894Z,9.85
2022-09-26T04:33:04.817Z,10.77
2022-09-26T04:35:32.324Z,11.07
2022-09-26T04:37:59.832Z,11.80
2022-09-26T04:40:27.473Z,11.43
2022-09-26T04:43:14.936Z,11.70
2022-09-26T04:45:43.723Z,10.43
2022-09-26T04:48:12.408Z,10.23
2022-09-26T04:51:09.550Z,9.80
2022-09-26T04:54:28.060Z,10.43
2022-09-26T04:56:55.262Z,9.90
2022-09-26T04:59:22.745Z,9.90
2022-09-26T05:01:57.572Z,10.75
2022-09-26T05:04:33.525Z,9.95
2022-09-26T05:07:00.799Z,10.23
2022-09-26T05:09:35.558Z,10.15
2022-09-26T05:12:09.801Z,10.93
2022-09-26T05:17:59.984Z,10.43
2022-09-26T05:24:08.223Z,12.13
2022-09-26T05:27:17.275Z,10.98
2022-09-26T05:29:55.061Z,11.52
2022-09-26T05:32:25.642Z,10.15
2022-09-26T05:35:12.775Z,11.23
2022-09-26T05:38:17.435Z,11.68
2022-09-26T05:41:25.959Z,10.85
2022-09-26T05:44:11.281Z,10.93
2022-09-26T05:49:58.349Z,10.30
2022-09-26T05:52:32.457Z,10.68
2022-09-26T05:55:00.114Z,9.63
2022-09-26T05:57:56.935Z,9.65
2022-09-26T06:00:27.743Z,10.38
2022-09-26T06:03:04.047Z,9.13
2022-09-26T06:05:39.058Z,9.68
2022-09-26T06:08:13.145Z,9.45
2022-09-26T06:10:45.662Z,7.80
2022-09-26T06:13:15.407Z,6.63
2022-09-26T06:15:57.781Z,5.32
2022-09-26T06:18:28.870Z,5.97
2022-09-26T06:23:35.607Z,5.93
2022-09-26T06:26:10.532Z,5.88
2022-09-26T06:28:39.770Z,4.70
2022-09-26T06:31:30.077Z,5.85
2022-09-26T06:34:23.595Z,5.30
2022-09-26T06:37:10.526Z,6.53
2022-09-26T06:39:40.361Z,6.00
2022-09-26T06:42:13.215Z,6.30
2022-09-26T06:44:55.207Z,6.88
2022-09-26T06:47:25.271Z,7.15
2022-09-26T06:50:11.238Z,7.68
2022-09-26T06:52:44.087Z,7.85
2022-09-26T06:55:12.478Z,6.93
2022-09-26T06:57:43.813Z,6.85
2022-09-26T07:00:16.009Z,6.93
2022-09-26T07:03:05.783Z,6.82
2022-09-26T07:06:03.469Z,7.68
2022-09-26T07:09:00.277Z,7.30
2022-09-26T07:11:38.259Z,7.57
2022-09-26T07:14:16.946Z,7.75
2022-09-26T07:16:53.876Z,7.30
2022-09-26T07:19:38.351Z,7.10
2022-09-26T07:22:15.453Z,7.15
2022-09-26T07:24:50.714Z,6.95
2022-09-26T07:27:18.830Z,7.60
2022-09-26T07:29:47.625Z,8.48
2022-09-26T07:32:16.201Z,8.02
2022-09-26T07:34:53.196Z,7.75
2022-09-26T07:37:20.321Z,7.25
2022-09-26T07:39:52.653Z,8.07
2022-09-26T07:42:22.111Z,8.20
2022-09-26T07:45:20.998Z,6.90
2022-09-26T07:47:56.922Z,7.43
2022-09-26T07:50:42.977Z,7.90
2022-09-26T07:53:22.133Z,6.72
2022-09-26T07:56:11.376Z,8.13
2022-09-26T07:58:59.672Z,6.95
2022-09-26T08:01:54.902Z,7.70
2022-09-26T08:04:37.224Z,6.90
2022-09-26T08:07:04.361Z,7.22
2022-09-26T08:09:36.514Z,6.93
2022-09-26T08:12:22.357Z,7.35
2022-09-26T08:15:20.300Z,7.10
2022-09-26T08:17:47.375Z,6.60
2022-09-26T08:20:14.383Z,5.95
2022-09-26T08:22:41.490Z,5.97
2022-09-26T08:25:11.975Z,6.35
2022-09-26T08:27:53.172Z,5.70
2022-09-26T08:30:22.171Z,5.90
2022-09-26T08:32:59.097Z,5.90
2022-09-26T08:35:42.152Z,6.10
2022-09-26T08:41:53.935Z,6.15
2022-09-26T08:46:26.274Z,6.65
2022-09-26T08:50:17.266Z,5.80
2022-09-26T08:53:18.902Z,6.05
2022-09-26T08:55:55.696Z,3.65
2022-09-26T08:58:44.630Z,3.45
2022-09-26T09:01:24.706Z,2.88
2022-09-26T09:04:53.793Z,2.88
2022-09-26T09:07:25.773Z,2.72
2022-09-26T09:10:01.719Z,2.70
2022-09-26T09:13:58.053Z,2.35
2022-09-26T09:17:32.433Z,2.92
2022-09-26T09:33:20.153Z,1.83
2022-09-26T09:36:14.023Z,1.52
2022-09-26T09:39:33.164Z,1.52
2022-09-26T09:42:23.608Z,1.50
2022-09-26T09:45:26.504Z,1.63
2022-09-26T09:48:00.855Z,1.38
2022-09-26T09:51:13.270Z,1.60
2022-09-26T09:54:17.006Z,1.30
2022-09-26T09:57:26.522Z,1.23
2022-09-26T10:00:17.600Z,1.25
2022-09-26T10:03:04.727Z,0.85
2022-09-26T10:05:45.447Z,1.08
2022-09-26T10:08:29.582Z,1.50
2022-09-26T10:11:26.070Z,1.33
2022-09-26T10:14:03.466Z,1.50
2022-09-26T10:17:11.202Z,1.33
2022-09-26T10:22:44.174Z,1.52
2022-09-26T10:26:12.521Z,1.30
2022-09-26T10:43:34.560Z,1.30
2022-09-26T10:46:14.244Z,1.27
2022-09-26T10:49:08.264Z,1.50
2022-09-26T10:52:25.665Z,1.98
2022-09-26T10:55:16.956Z,1.33
2022-09-26T10:57:55.113Z,0.75
2022-09-26T11:00:39.207Z,0.90
2022-09-26T11:13:23.282Z,0.98
2022-09-26T11:18:07.040Z,0.75
2022-09-26T11:21:18.299Z,0.90
2022-09-26T11:38:15.164Z,0.80
2022-09-26T11:45:55.763Z,0.85
2022-09-26T11:57:53.963Z,1.83
2022-09-26T12:17:05.305Z,0.93
2022-09-26T12:20:21.607Z,1.13
2022-09-26T12:28:27.493Z,0.60
2022-09-26T12:36:42.813Z,0.75
2022-09-26T12:39:29.346Z,0.85
2022-09-26T12:42:16.809Z,0.80
2022-09-26T12:45:17.342Z,0.88
2022-09-26T12:48:16.577Z,0.80
2022-09-26T12:50:56.996Z,0.50
2022-09-26T12:54:16.799Z,0.52
2022-09-26T12:57:05.896Z,0.32
2022-09-26T13:00:09.359Z,0.60
2022-09-26T13:03:09.769Z,0.50
2022-09-26T13:06:49.098Z,0.40
2022-09-26T13:10:13.920Z,0.63
2022-09-26T13:13:35.989Z,0.47
2022-09-26T13:16:49.389Z,0.57
2022-09-26T13:19:29.848Z,0.38
2022-09-26T13:22:03.825Z,0.30
2022-09-26T13:25:29.544Z,0.47
2022-09-26T13:28:16.639Z,0.70
2022-09-26T13:31:46.576Z,0.45
2022-09-26T13:34:38.968Z,0.55
2022-09-26T13:37:29.123Z,0.50
2022-09-26T13:40:18.143Z,0.73
2022-09-26T13:43:02.814Z,0.60
2022-09-26T13:46:28.500Z,0.45
2022-09-26T13:54:05.635Z,0.60
2022-09-26T13:56:38.889Z,0.80
2022-09-26T13:59:44.241Z,0.60
2022-09-26T14:02:29.367Z,0.60
2022-09-26T14:05:03.405Z,0.50
2022-09-26T14:08:03.911Z,0.40
2022-09-26T14:24:48.731Z,0.60
2022-09-26T14:30:30.845Z,0.50
2022-09-26T14:33:10.219Z,0.75
2022-09-26T14:35:39.500Z,0.40
2022-09-26T14:38:23.592Z,0.52
2022-09-26T14:41:01.137Z,0.68
2022-09-26T14:43:30.425Z,0.60
2022-09-26T14:46:05.457Z,0.70
2022-09-26T14:48:41.985Z,0.50
2022-09-26T14:51:15.806Z,0.60
2022-09-26T14:54:21.756Z,0.70
2022-09-26T14:57:02.787Z,0.70
2022-09-26T15:02:44.230Z,0.75
2022-09-26T15:05:25.771Z,0.90
2022-09-26T15:07:55.554Z,0.80
2022-09-26T15:10:37.954Z,0.90
2022-09-26T15:13:23.182Z,0.75
2022-09-26T15:16:22.531Z,0.90
2022-09-26T15:19:06.832Z,0.65
2022-09-26T15:21:48.742Z,0.60
2022-09-26T15:24:36.820Z,0.70
2022-09-26T15:27:30.284Z,0.75
2022-09-26T15:30:14.631Z,0.68
2022-09-26T15:32:49.829Z,0.70
2022-09-26T15:35:18.054Z,0.73
2022-09-26T15:37:46.735Z,0.73
2022-09-26T15:40:23.608Z,0.73
2022-09-26T15:43:12.300Z,1.13
2022-09-26T15:45:48.907Z,0.70
2022-09-26T15:48:26.896Z,0.63
2022-09-26T15:51:13.921Z,0.90
2022-09-26T15:53:43.744Z,1.30
2022-09-26T15:56:43.750Z,0.82
2022-09-26T15:59:40.003Z,1.00
2022-09-26T16:02:31.074Z,0.90
2022-09-26T16:04:59.854Z,1.00
2022-09-26T16:07:32.499Z,0.90
2022-09-26T16:10:00.081Z,1.00
2022-09-26T16:12:31.928Z,1.00
2022-09-26T16:15:14.311Z,0.60
2022-09-26T16:17:49.570Z,1.20
2022-09-26T16:20:17.021Z,1.30
2022-09-26T16:22:51.265Z,1.20
2022-09-26T16:25:55.523Z,1.50
2022-09-26T16:28:42.719Z,1.30
2022-09-26T16:31:24.424Z,2.15
2022-09-26T16:33:58.511Z,1.47
2022-09-26T16:36:35.827Z,1.40
2022-09-26T16:39:08.912Z,1.20
2022-09-26T16:42:02.839Z,1.40
2022-09-26T16:44:53.092Z,1.55
2022-09-26T16:47:49.549Z,1.52
2022-09-26T16:50:27.490Z,1.30
2022-09-26T16:52:56.072Z,1.35
2022-09-26T16:55:27.174Z,1.60
2022-09-26T16:58:01.187Z,1.40
2022-09-26T17:00:52.596Z,1.15
2022-09-26T17:03:31.152Z,1.27
2022-09-26T17:06:00.262Z,1.73
2022-09-26T17:08:28.630Z,1.30
2022-09-26T17:11:02.070Z,1.60
2022-09-26T17:13:33.875Z,1.70
2022-09-26T17:16:03.551Z,1.67
2022-09-26T17:18:33.234Z,1.73
2022-09-26T17:21:01.701Z,1.80
2022-09-26T17:23:41.479Z,1.70
2022-09-26T17:26:21.741Z,1.77
2022-09-26T17:28:51.506Z,1.80
2022-09-26T17:31:20.182Z,1.95
2022-09-26T17:33:55.354Z,1.75
2022-09-26T17:36:28.072Z,1.75
2022-09-26T17:38:59.363Z,1.92
2022-09-26T17:41:32.687Z,1.90
2022-09-26T17:44:00.775Z,2.38
2022-09-26T17:46:29.920Z,2.20
2022-09-26T17:48:57.967Z,2.47
2022-09-26T17:51:25.507Z,1.83
2022-09-26T17:53:52.923Z,1.88
2022-09-26T17:56:20.686Z,2.05
2022-09-26T17:58:52.124Z,2.60
2022-09-26T18:01:33.508Z,2.10
2022-09-26T18:04:09.238Z,1.90
2022-09-26T18:06:36.955Z,1.88
2022-09-26T18:09:10.242Z,2.58
2022-09-26T18:11:38.986Z,2.70
2022-09-26T18:14:08.011Z,2.20
2022-09-26T18:16:35.299Z,2.28
2022-09-26T18:19:07.540Z,2.80
2022-09-26T18:21:35.820Z,2.13
2022-09-26T18:24:06.742Z,2.15
2022-09-26T18:26:47.160Z,2.00
2022-09-26T18:29:30.279Z,4.97
2022-09-26T18:31:59.833Z,2.30
2022-09-26T18:34:27.151Z,2.38
2022-09-26T18:36:59.979Z,1.90
2022-09-26T18:39:28.934Z,1.88
2022-09-26T18:42:06.079Z,2.42
2022-09-26T18:44:35.156Z,1.95
2022-09-26T18:47:08.070Z,2.20
2022-09-26T18:49:37.817Z,2.00
2022-09-26T18:52:23.267Z,2.15
2022-09-26T18:55:13.084Z,1.70
2022-09-26T18:57:58.762Z,2.35
2022-09-26T19:00:28.672Z,2.15
2022-09-26T19:02:57.138Z,2.08
2022-09-26T19:05:25.698Z,1.95
2022-09-26T19:07:55.583Z,1.83
2022-09-26T19:10:23.006Z,2.80
2022-09-26T19:12:50.120Z,2.10
2022-09-26T19:15:17.730Z,2.45
2022-09-26T19:17:45.038Z,2.22
2022-09-26T19:20:12.031Z,2.30
2022-09-26T19:22:39.567Z,2.20
2022-09-26T19:25:09.612Z,2.60
2022-09-26T19:27:48.454Z,2.33
2022-09-26T19:30:21.445Z,2.00
2022-09-26T19:32:53.856Z,2.20
2022-09-26T19:35:35.952Z,2.17
2022-09-26T19:38:25.587Z,2.13
2022-09-26T19:40:53.902Z,2.35
2022-09-26T19:43:22.746Z,2.30
2022-09-26T19:45:54.537Z,2.25
2022-09-26T19:48:23.615Z,2.38
2022-09-26T19:50:52.596Z,2.55
2022-09-26T19:53:23.591Z,2.15
2022-09-26T19:55:57.383Z,2.40
2022-09-26T19:58:28.131Z,2.22
2022-09-26T20:01:00.361Z,2.50
2022-09-26T20:06:23.083Z,2.47
2022-09-26T20:09:00.445Z,2.25
2022-09-26T20:11:28.574Z,3.00
2022-09-26T20:17:25.963Z,2.60
2022-09-26T20:19:58.545Z,2.30
2022-09-26T20:22:26.310Z,2.63
2022-09-26T20:24:55.489Z,2.63
2022-09-26T20:27:28.703Z,2.65
2022-09-26T20:30:15.639Z,4.15
2022-09-26T20:32:42.872Z,3.30
2022-09-26T20:35:16.435Z,4.65
2022-09-26T20:37:47.266Z,4.70
2022-09-26T20:40:24.176Z,3.60
2022-09-26T20:42:59.824Z,3.42
2022-09-26T20:45:38.659Z,3.45
2022-09-26T20:48:27.644Z,3.53
2022-09-26T20:50:55.857Z,3.45
2022-09-26T20:53:24.887Z,3.67
2022-09-26T20:55:53.938Z,3.50
2022-09-26T20:58:22.251Z,3.08
2022-09-26T21:00:50.352Z,3.45
2022-09-26T21:03:21.837Z,3.22
2022-09-26T21:05:48.866Z,3.70
2022-09-26T21:08:33.457Z,3.55
2022-09-26T21:11:02.165Z,3.88
2022-09-26T21:13:29.378Z,3.20
2022-09-26T21:16:02.564Z,3.40
2022-09-26T21:18:33.266Z,3.90
2022-09-26T21:21:08.218Z,3.58
2022-09-26T21:23:58.964Z,6.05
2022-09-26T21:26:36.920Z,3.60
2022-09-26T21:29:20.181Z,3.20
2022-09-26T21:32:14.367Z,3.60
2022-09-26T21:35:08.272Z,3.58
2022-09-26T21:37:52.186Z,3.47
2022-09-26T21:40:27.702Z,3.30
2022-09-26T21:43:07.163Z,3.25
2022-09-26T21:45:36.867Z,3.28
2022-09-26T21:48:04.277Z,2.78
2022-09-26T21:50:31.673Z,3.05
2022-09-26T21:53:47.170Z,4.13
2022-09-26T21:56:55.677Z,3.33
2022-09-26T22:16:45.242Z,3.17
2022-09-26T22:19:25.052Z,4.07
2022-09-26T22:22:36.704Z,4.07
2022-09-26T22:25:32.009Z,4.78
2022-09-26T22:32:24.535Z,3.20
2022-09-26T22:34:51.906Z,3.75
2022-09-26T22:37:19.808Z,3.38
2022-09-26T22:39:46.843Z,3.63
2022-09-26T22:42:13.985Z,4.15
2022-09-26T22:45:26.814Z,3.28
2022-09-26T22:49:22.739Z,3.35
2022-09-26T23:00:44.898Z,3.63
2022-09-26T23:03:12.102Z,3.75
2022-09-26T23:05:43.579Z,2.90
2022-09-26T23:08:10.587Z,2.80
2022-09-26T23:10:37.733Z,2.75
2022-09-26T23:13:05.007Z,3.40
2022-09-26T23:15:32.423Z,1.98
2022-09-26T23:17:59.470Z,2.30
2022-09-26T23:20:26.472Z,1.90
2022-09-26T23:22:53.396Z,1.85
2022-09-26T23:25:20.355Z,1.75
2022-09-26T23:27:47.356Z,1.40
2022-09-26T23:30:15.021Z,1.30
2022-09-26T23:32:41.983Z,1.30
2022-09-26T23:35:10.793Z,1.70
2022-09-26T23:37:39.721Z,0.90
2022-09-26T23:40:08.037Z,1.20
2022-09-26T23:42:35.160Z,1.10
2022-09-26T23:45:02.155Z,1.23
2022-09-26T23:47:29.104Z,1.10
2022-09-26T23:49:56.889Z,1.35
2022-09-26T23:52:23.987Z,1.05
2022-09-26T23:54:50.950Z,1.30
2022-09-26T23:57:17.953Z,1.20
2022-09-26T23:59:44.985Z,1.00
